Time;durP1;ratioP1;P1;durP2;ratioP2;P2;SDS_P1;SDS_P2;PMS_P1;PMS_P2;Temp;Humidity;BMP_temperature;BMP_pressure;BME280_temperature;BME280_humidity;BME280_pressure;Samples;Min_cycle;Max_cycle;Signal;HPM_P1;HPM_P2
2022/05/28 00:01:34;;;;;;;5.60;1.45;;;9.50;99.90;;;;;;5015498;28;20395;-84
2022/05/28 00:04:04;;;;;;;3.17;1.40;;;9.40;99.90;;;;;;5016562;28;20624;-85
2022/05/28 00:06:35;;;;;;;3.63;1.20;;;9.50;99.90;;;;;;5014887;28;20413;-84
2022/05/28 00:09:03;;;;;;;4.88;1.60;;;9.60;99.90;;;;;;5021741;28;20500;-86
2022/05/28 00:11:37;;;;;;;5.63;1.60;;;9.50;99.90;;;;;;5018688;28;20399;-85
2022/05/28 00:14:06;;;;;;;4.30;1.38;;;9.40;99.90;;;;;;5017775;28;20405;-84
2022/05/28 00:16:36;;;;;;;3.50;1.30;;;9.40;99.90;;;;;;5017585;28;20425;-85
2022/05/28 00:19:05;;;;;;;4.50;1.30;;;9.50;99.90;;;;;;5022064;28;20984;-86
2022/05/28 00:21:33;;;;;;;2.90;1.30;;;9.40;99.90;;;;;;5015811;28;20405;-86
2022/05/28 00:24:03;;;;;;;5.97;1.30;;;9.30;99.90;;;;;;5023008;28;20922;-85
2022/05/28 00:26:30;;;;;;;4.00;1.30;;;9.50;99.90;;;;;;5016189;28;20425;-85
2022/05/28 00:28:58;;;;;;;5.35;1.38;;;9.50;99.90;;;;;;5016754;28;20413;-85
2022/05/28 00:31:26;;;;;;;6.13;1.50;;;9.50;99.90;;;;;;5007648;28;20399;-84
2022/05/28 00:33:54;;;;;;;3.43;1.20;;;9.60;99.90;;;;;;5021990;28;20379;-85
2022/05/28 00:36:22;;;;;;;3.75;1.30;;;9.40;99.90;;;;;;5014249;28;20452;-85
2022/05/28 00:38:50;;;;;;;5.88;1.50;;;9.50;99.90;;;;;;5012545;28;20869;-86
2022/05/28 00:41:17;;;;;;;3.20;1.30;;;9.60;99.90;;;;;;5020294;28;20526;-87
2022/05/28 00:43:46;;;;;;;4.22;1.40;;;9.70;99.90;;;;;;5014958;28;20411;-85
2022/05/28 00:46:18;;;;;;;3.80;1.30;;;9.50;99.90;;;;;;5019178;28;20401;-84
2022/05/28 00:48:51;;;;;;;5.00;1.40;;;9.30;99.90;;;;;;5009426;28;20605;-85
2022/05/28 00:51:28;;;;;;;5.82;1.35;;;9.40;99.90;;;;;;5018747;28;20986;-85
2022/05/28 00:54:02;;;;;;;4.13;1.45;;;9.20;99.90;;;;;;5013968;28;20404;-84
2022/05/28 00:56:30;;;;;;;3.40;1.08;;;9.10;99.90;;;;;;5008542;28;20395;-85
2022/05/28 00:58:58;;;;;;;2.97;1.30;;;9.20;99.90;;;;;;5000307;28;20902;-85
2022/05/28 01:01:29;;;;;;;5.70;1.67;;;9.30;99.90;;;;;;5023183;28;20458;-86
2022/05/28 01:04:18;;;;;;;6.47;1.30;;;9.30;99.90;;;;;;5018263;28;20880;-86
2022/05/28 01:06:51;;;;;;;3.45;1.70;;;9.30;99.90;;;;;;5014739;28;20393;-85
2022/05/28 01:10:17;;;;;;;6.15;1.30;;;9.30;99.90;;;;;;5011425;28;20430;-85
2022/05/28 01:13:06;;;;;;;4.60;1.33;;;9.10;99.90;;;;;;5058028;28;20919;-85
2022/05/28 01:15:45;;;;;;;3.08;1.30;;;9.30;99.90;;;;;;5076438;28;21041;-85
2022/05/28 01:18:35;;;;;;;6.07;1.70;;;9.30;99.90;;;;;;5026497;28;20785;-86
2022/05/28 01:21:13;;;;;;;3.92;1.30;;;9.30;99.90;;;;;;5018829;28;20510;-85
2022/05/28 01:24:02;;;;;;;5.38;1.40;;;9.20;99.90;;;;;;5010798;28;20468;-83
2022/05/28 01:26:59;;;;;;;4.68;1.48;;;9.30;99.90;;;;;;5016301;28;20465;-83
2022/05/28 01:29:34;;;;;;;5.07;1.33;;;9.10;99.90;;;;;;5037867;28;20411;-85
2022/05/28 01:32:04;;;;;;;3.92;1.52;;;9.10;99.90;;;;;;5021042;28;20399;-86
2022/05/28 01:34:32;;;;;;;5.93;1.50;;;9.00;99.90;;;;;;5016067;28;20389;-86
2022/05/28 01:37:04;;;;;;;5.68;1.83;;;8.90;99.90;;;;;;5018274;28;20407;-85
2022/05/28 01:39:33;;;;;;;4.45;1.58;;;8.90;99.90;;;;;;5022890;28;20709;-85
2022/05/28 01:42:02;;;;;;;6.43;1.63;;;8.80;99.90;;;;;;5014171;28;20403;-84
2022/05/28 01:44:31;;;;;;;5.43;1.60;;;9.00;99.90;;;;;;5013328;28;20391;-84
2022/05/28 01:46:59;;;;;;;6.80;1.50;;;9.00;99.90;;;;;;5015813;28;20387;-85
2022/05/28 01:49:28;;;;;;;6.67;1.77;;;8.90;99.90;;;;;;5011877;28;20771;-84
2022/05/28 01:51:59;;;;;;;4.77;1.37;;;9.00;99.90;;;;;;5008521;28;20431;-83
2022/05/28 01:54:36;;;;;;;5.97;1.70;;;9.00;99.90;;;;;;5012220;28;20379;-85
2022/05/28 01:57:04;;;;;;;6.28;1.80;;;9.10;99.90;;;;;;5014746;28;20389;-85
2022/05/28 01:59:34;;;;;;;4.32;1.60;;;9.10;99.90;;;;;;5016569;28;20399;-84
2022/05/28 02:02:06;;;;;;;6.30;1.63;;;9.00;99.90;;;;;;5022519;28;20414;-85
2022/05/28 02:04:36;;;;;;;6.85;1.67;;;9.10;99.90;;;;;;5012491;28;20922;-84
2022/05/28 02:07:04;;;;;;;5.13;1.95;;;9.30;99.90;;;;;;5022678;28;20904;-86
2022/05/28 02:09:45;;;;;;;4.23;1.33;;;9.30;99.90;;;;;;5016602;28;20419;-84
2022/05/28 02:12:16;;;;;;;5.00;1.60;;;9.10;99.90;;;;;;5017815;28;20455;-83
2022/05/28 02:15:02;;;;;;;5.93;1.70;;;9.00;99.90;;;;;;5023046;28;20408;-84
2022/05/28 02:17:51;;;;;;;5.70;2.00;;;8.80;99.90;;;;;;5014971;28;20395;-85
2022/05/28 02:21:05;;;;;;;4.47;1.40;;;9.00;99.90;;;;;;5018499;28;20410;-85
2022/05/28 02:23:52;;;;;;;6.60;1.85;;;9.10;99.90;;;;;;5039959;28;20468;-84
2022/05/28 02:26:27;;;;;;;5.70;1.60;;;8.90;99.90;;;;;;5017422;28;20916;-86
2022/05/28 02:28:56;;;;;;;6.63;1.83;;;8.80;99.90;;;;;;5020976;28;20403;-85
2022/05/28 02:31:28;;;;;;;7.05;1.70;;;8.90;99.90;;;;;;5023183;28;20405;-87
2022/05/28 02:33:57;;;;;;;5.55;1.63;;;8.90;99.90;;;;;;5023933;28;20448;-85
2022/05/28 02:36:25;;;;;;;6.67;1.80;;;8.90;99.90;;;;;;5018381;28;20433;-85
2022/05/28 02:38:54;;;;;;;6.88;1.88;;;8.90;99.90;;;;;;5019971;28;20486;-85
2022/05/28 02:41:22;;;;;;;6.18;1.80;;;8.90;99.90;;;;;;5018095;28;20762;-85
2022/05/28 02:43:50;;;;;;;5.85;1.77;;;8.80;99.90;;;;;;5017739;28;20503;-86
2022/05/28 02:46:17;;;;;;;8.18;1.90;;;8.80;99.90;;;;;;5021677;28;20402;-86
2022/05/28 02:48:46;;;;;;;7.85;1.90;;;8.80;99.90;;;;;;5027359;28;20401;-85
2022/05/28 02:51:18;;;;;;;6.60;2.20;;;8.80;99.90;;;;;;5015764;28;20487;-85
2022/05/28 02:53:49;;;;;;;7.97;1.80;;;8.90;99.90;;;;;;5016207;28;20403;-85
2022/05/28 02:56:18;;;;;;;8.13;2.08;;;8.80;99.90;;;;;;5051745;28;20415;-85
2022/05/28 02:58:45;;;;;;;7.57;2.00;;;8.80;99.90;;;;;;5016270;28;20789;-85
2022/05/28 03:01:24;;;;;;;8.32;2.03;;;8.80;99.90;;;;;;5020168;28;20923;-85
2022/05/28 03:03:53;;;;;;;7.53;2.00;;;8.70;99.90;;;;;;5020488;28;20484;-86
2022/05/28 03:06:22;;;;;;;9.45;2.17;;;8.80;99.90;;;;;;5011562;28;20391;-85
2022/05/28 03:08:50;;;;;;;7.85;2.30;;;8.70;99.90;;;;;;5015830;28;20450;-85
2022/05/28 03:11:18;;;;;;;9.20;2.22;;;8.70;99.90;;;;;;5018979;28;20395;-86
2022/05/28 03:13:46;;;;;;;8.77;2.50;;;8.70;99.90;;;;;;5019427;28;20401;-83
2022/05/28 03:16:14;;;;;;;10.20;2.53;;;8.70;99.90;;;;;;5012900;28;20421;-86
2022/05/28 03:18:43;;;;;;;7.57;2.15;;;8.60;99.90;;;;;;5017812;28;20956;-85
2022/05/28 03:21:11;;;;;;;10.95;2.30;;;8.70;99.90;;;;;;5018090;28;20483;-85
2022/05/28 03:23:39;;;;;;;9.35;2.00;;;8.80;99.90;;;;;;5019235;28;20403;-85
2022/05/28 03:26:27;;;;;;;8.60;2.00;;;8.90;99.90;;;;;;5020028;28;20438;-85
2022/05/28 03:28:56;;;;;;;6.65;2.28;;;8.90;99.90;;;;;;5018336;28;20402;-85
2022/05/28 03:31:26;;;;;;;6.13;2.13;;;9.00;99.90;;;;;;5017455;28;20396;-86
2022/05/28 03:33:57;;;;;;;7.67;2.10;;;9.00;99.90;;;;;;5019460;28;20811;-85
2022/05/28 03:36:26;;;;;;;7.20;1.90;;;8.80;99.90;;;;;;5016440;28;20407;-85
2022/05/28 03:38:53;;;;;;;9.25;2.13;;;8.80;99.90;;;;;;5018844;28;20406;-86
2022/05/28 03:41:21;;;;;;;6.95;1.80;;;8.80;99.90;;;;;;5009876;28;20396;-85
2022/05/28 03:43:49;;;;;;;8.13;1.70;;;8.70;99.90;;;;;;5024114;28;20432;-85
2022/05/28 03:46:34;;;;;;;3.80;1.77;;;8.60;99.90;;;;;;5021236;28;20815;-85
2022/05/28 03:49:14;;;;;;;9.02;2.30;;;8.60;99.90;;;;;;5016530;28;20406;-85
2022/05/28 03:51:42;;;;;;;8.48;2.10;;;8.70;99.90;;;;;;5012453;28;20398;-85
2022/05/28 03:54:10;;;;;;;5.90;1.80;;;8.70;99.90;;;;;;5015670;28;20406;-85
2022/05/28 03:56:41;;;;;;;5.32;1.80;;;8.70;99.90;;;;;;5017781;28;20890;-85
2022/05/28 03:59:09;;;;;;;5.93;1.63;;;8.70;99.90;;;;;;5018074;28;20399;-84
2022/05/28 04:01:37;;;;;;;9.18;1.92;;;8.70;99.90;;;;;;5019290;28;20485;-85
2022/05/28 04:04:06;;;;;;;7.22;1.75;;;8.60;99.90;;;;;;5018774;28;20495;-85
2022/05/28 04:06:37;;;;;;;10.07;2.03;;;8.60;99.90;;;;;;5010295;28;20434;-85
2022/05/28 04:09:06;;;;;;;7.10;2.05;;;8.60;99.90;;;;;;5040719;28;20403;-85
2022/05/28 04:11:35;;;;;;;6.57;1.80;;;8.60;99.90;;;;;;5011033;28;20400;-85
2022/05/28 04:14:04;;;;;;;8.25;1.95;;;8.50;99.90;;;;;;5018787;28;20489;-85
2022/05/28 04:16:33;;;;;;;9.13;2.03;;;8.60;99.90;;;;;;5016120;28;20399;-84
2022/05/28 04:19:01;;;;;;;6.30;1.80;;;8.60;99.90;;;;;;5017313;28;20449;-86
2022/05/28 04:21:29;;;;;;;9.55;2.42;;;8.70;99.90;;;;;;5011096;28;20940;-85
2022/05/28 04:23:57;;;;;;;7.70;1.58;;;8.60;99.90;;;;;;5023075;28;20903;-84
2022/05/28 04:26:25;;;;;;;8.23;2.00;;;8.60;99.90;;;;;;5015625;28;20386;-84
2022/05/28 04:28:54;;;;;;;8.45;2.10;;;8.50;99.90;;;;;;5018114;28;20744;-85
2022/05/28 04:31:21;;;;;;;9.10;1.95;;;8.60;99.90;;;;;;5021858;28;20401;-86
2022/05/28 04:33:49;;;;;;;7.47;1.95;;;8.60;99.90;;;;;;5014139;28;20407;-87
2022/05/28 04:36:17;;;;;;;7.70;1.80;;;8.70;99.90;;;;;;5020921;28;20425;-87
2022/05/28 04:38:45;;;;;;;5.47;1.50;;;8.70;99.90;;;;;;5019487;28;20897;-87
2022/05/28 04:41:13;;;;;;;8.60;2.15;;;8.70;99.90;;;;;;5022238;28;20407;-86
2022/05/28 04:43:40;;;;;;;10.02;1.92;;;8.60;99.90;;;;;;5022978;28;20407;-87
2022/05/28 04:46:08;;;;;;;7.63;1.80;;;8.70;99.90;;;;;;5024297;28;20498;-86
2022/05/28 04:48:38;;;;;;;7.33;1.80;;;8.70;99.90;;;;;;5016658;28;20442;-86
2022/05/28 04:51:08;;;;;;;9.00;2.20;;;8.60;99.90;;;;;;5019026;28;20916;-86
2022/05/28 04:53:37;;;;;;;7.38;2.25;;;8.60;99.90;;;;;;5015634;28;20493;-85
2022/05/28 04:56:05;;;;;;;6.85;1.80;;;8.70;99.90;;;;;;5012749;28;20399;-85
2022/05/28 04:58:38;;;;;;;8.07;1.85;;;8.70;99.90;;;;;;5014824;28;20494;-84
2022/05/28 05:01:05;;;;;;;5.90;1.80;;;8.60;99.90;;;;;;5023363;28;20896;-86
2022/05/28 05:03:33;;;;;;;9.02;1.92;;;8.60;99.90;;;;;;5004355;28;20481;-85
2022/05/28 05:06:01;;;;;;;7.35;1.80;;;8.70;99.90;;;;;;5008750;28;20391;-85
2022/05/28 05:08:30;;;;;;;7.47;1.85;;;8.60;99.90;;;;;;5008497;28;20407;-85
2022/05/28 05:10:58;;;;;;;7.82;1.90;;;8.70;99.90;;;;;;5019937;28;20526;-85
2022/05/28 05:13:26;;;;;;;8.02;1.80;;;8.80;99.90;;;;;;5014877;28;20401;-85
2022/05/28 05:15:53;;;;;;;8.05;1.80;;;8.80;99.90;;;;;;5021496;28;20392;-85
2022/05/28 05:18:22;;;;;;;5.70;1.80;;;8.80;99.90;;;;;;5013195;28;20426;-87
2022/05/28 05:20:50;;;;;;;10.27;2.25;;;8.90;99.90;;;;;;5038376;28;20970;-84
2022/05/28 05:23:18;;;;;;;9.60;2.50;;;8.90;99.90;;;;;;5020143;28;20401;-86
2022/05/28 05:25:46;;;;;;;8.95;1.95;;;8.90;99.90;;;;;;5021214;28;20433;-85
2022/05/28 05:28:14;;;;;;;7.75;2.20;;;8.90;99.90;;;;;;5019938;28;20427;-85
2022/05/28 05:30:42;;;;;;;6.33;1.80;;;8.80;99.90;;;;;;5019419;28;20413;-86
2022/05/28 05:33:10;;;;;;;8.27;2.33;;;8.90;99.90;;;;;;5020478;28;20402;-85
2022/05/28 05:35:38;;;;;;;7.53;1.87;;;8.80;99.90;;;;;;5020938;28;20422;-85
2022/05/28 05:38:07;;;;;;;9.57;2.33;;;8.80;99.90;;;;;;5014697;28;20793;-85
2022/05/28 05:40:39;;;;;;;6.80;1.90;;;8.90;99.90;;;;;;5023074;28;20780;-87
2022/05/28 05:43:07;;;;;;;8.90;2.15;;;8.90;99.90;;;;;;5024229;28;20751;-86
2022/05/28 05:45:35;;;;;;;8.43;2.00;;;8.90;99.90;;;;;;5023165;27;20409;-86
2022/05/28 05:48:04;;;;;;;8.35;1.80;;;8.90;99.90;;;;;;5019383;27;20417;-87
2022/05/28 05:50:31;;;;;;;8.00;2.08;;;9.00;99.90;;;;;;5029118;28;20851;-86
2022/05/28 05:53:00;;;;;;;5.88;1.90;;;9.00;99.90;;;;;;5024708;28;20832;-86
2022/05/28 05:55:27;;;;;;;6.53;1.80;;;9.00;99.90;;;;;;5027036;28;20397;-87
2022/05/28 05:57:55;;;;;;;6.45;1.85;;;9.10;99.90;;;;;;5025844;28;20428;-88
2022/05/28 06:00:23;;;;;;;8.15;2.00;;;9.00;99.90;;;;;;5020702;28;20407;-88
2022/05/28 06:02:50;;;;;;;7.33;2.60;;;9.00;99.90;;;;;;5019303;28;20400;-86
2022/05/28 06:05:18;;;;;;;8.60;2.00;;;9.20;99.90;;;;;;5027668;28;20398;-85
2022/05/28 06:07:46;;;;;;;8.37;1.87;;;9.10;99.90;;;;;;5023766;28;20867;-86
2022/05/28 06:10:16;;;;;;;7.47;1.80;;;9.10;99.90;;;;;;5019373;28;20456;-86
2022/05/28 06:12:43;;;;;;;7.50;1.60;;;9.10;99.90;;;;;;5021080;28;20428;-86
2022/05/28 06:15:12;;;;;;;6.68;1.70;;;9.20;99.90;;;;;;5022282;28;20439;-86
2022/05/28 06:17:40;;;;;;;6.43;1.63;;;9.20;99.90;;;;;;5017244;28;20893;-85
2022/05/28 06:20:11;;;;;;;7.60;1.63;;;9.20;99.90;;;;;;5024494;27;20436;-84
2022/05/28 06:22:39;;;;;;;5.32;1.35;;;9.30;99.90;;;;;;5017158;28;20505;-85
2022/05/28 06:25:07;;;;;;;5.20;1.58;;;9.40;99.90;;;;;;5018187;28;20822;-83
2022/05/28 06:27:35;;;;;;;4.88;1.30;;;9.40;99.90;;;;;;5020078;28;20419;-84
2022/05/28 06:30:04;;;;;;;6.50;1.80;;;9.50;99.90;;;;;;5017520;28;20460;-83
2022/05/28 06:32:32;;;;;;;6.55;1.60;;;9.60;99.90;;;;;;5018257;28;20398;-83
2022/05/28 06:35:00;;;;;;;5.55;1.60;;;9.70;99.90;;;;;;5018015;28;20409;-83
2022/05/28 06:37:28;;;;;;;6.60;1.60;;;9.80;99.90;;;;;;5019949;28;20414;-84
2022/05/28 06:39:55;;;;;;;7.85;1.63;;;9.80;99.90;;;;;;5020714;28;20473;-83
2022/05/28 06:42:23;;;;;;;5.97;1.63;;;9.60;99.90;;;;;;5019463;28;20420;-83
2022/05/28 06:44:51;;;;;;;11.30;1.80;;;9.70;99.90;;;;;;5020508;28;20478;-84
2022/05/28 06:47:20;;;;;;;7.25;1.80;;;9.70;99.90;;;;;;5014214;28;20425;-83
2022/05/28 06:51:01;;;;;;;7.63;1.73;;;9.90;99.90;;;;;;5023035;28;20561;-84
2022/05/28 06:52:35;;;;;;;6.00;1.35;;;9.90;99.90;;;;;;5027006;28;20403;-84
2022/05/28 06:55:05;;;;;;;8.13;2.00;;;10.00;99.90;;;;;;5018820;28;20882;-85
2022/05/28 06:57:33;;;;;;;8.63;1.80;;;10.00;99.90;;;;;;5030383;28;20398;-84
2022/05/28 07:00:00;;;;;;;4.88;1.88;;;10.10;99.90;;;;;;5034083;28;20454;-83
2022/05/28 07:02:28;;;;;;;8.30;1.95;;;10.10;99.90;;;;;;5019669;28;20383;-84
2022/05/28 07:04:56;;;;;;;5.70;1.50;;;10.10;99.90;;;;;;5020687;28;20402;-83
2022/05/28 07:07:25;;;;;;;6.97;1.45;;;10.00;99.90;;;;;;5023061;28;20483;-84
2022/05/28 07:09:53;;;;;;;9.00;1.48;;;10.00;99.90;;;;;;5010190;28;20384;-82
2022/05/28 07:12:20;;;;;;;6.28;1.70;;;10.10;99.90;;;;;;5009509;28;20410;-83
2022/05/28 07:14:48;;;;;;;4.03;1.33;;;10.20;99.90;;;;;;5034077;28;20510;-83
2022/05/28 07:17:16;;;;;;;6.03;1.40;;;10.30;99.90;;;;;;5014045;28;20804;-82
2022/05/28 07:19:44;;;;;;;8.30;2.17;;;10.40;99.90;;;;;;5020466;28;20784;-84
2022/05/28 07:22:13;;;;;;;5.43;1.13;;;10.30;99.90;;;;;;5016412;28;20399;-83
2022/05/28 07:24:40;;;;;;;7.25;1.20;;;10.20;99.90;;;;;;5024039;28;20397;-84
2022/05/28 07:27:11;;;;;;;3.83;1.23;;;10.10;99.90;;;;;;5026457;28;20398;-83
2022/05/28 07:29:39;;;;;;;6.55;1.10;;;10.30;99.90;;;;;;5026947;28;20405;-83
2022/05/28 07:32:07;;;;;;;7.55;1.30;;;10.30;99.90;;;;;;5014472;28;20438;-83
2022/05/28 07:34:35;;;;;;;7.95;1.50;;;10.20;99.90;;;;;;5013689;28;20418;-82
2022/05/28 07:37:03;;;;;;;3.25;1.08;;;10.30;99.90;;;;;;5012961;28;20448;-84
2022/05/28 07:39:31;;;;;;;4.43;1.30;;;10.50;99.90;;;;;;5018010;28;20395;-85
2022/05/28 07:42:02;;;;;;;3.58;1.17;;;10.60;99.90;;;;;;5027241;28;20393;-84
2022/05/28 07:44:30;;;;;;;5.68;1.30;;;10.60;99.90;;;;;;5024044;28;20402;-84
2022/05/28 07:46:58;;;;;;;16.15;7.38;;;10.50;99.90;;;;;;5022309;28;20402;-83
2022/05/28 07:49:27;;;;;;;3.55;1.30;;;10.40;99.90;;;;;;5024722;28;20437;-84
2022/05/28 07:51:54;;;;;;;3.78;1.20;;;10.40;99.90;;;;;;5010423;28;20488;-83
2022/05/28 07:54:22;;;;;;;6.40;1.25;;;10.40;99.90;;;;;;5017365;28;20400;-83
2022/05/28 07:56:49;;;;;;;6.93;1.20;;;10.40;99.90;;;;;;5021683;28;20427;-83
2022/05/28 07:59:17;;;;;;;3.42;1.20;;;10.40;99.90;;;;;;5009381;28;20491;-83
2022/05/28 08:01:45;;;;;;;3.80;1.00;;;10.40;99.90;;;;;;5012073;28;20401;-83
2022/05/28 08:04:13;;;;;;;4.15;1.30;;;10.40;99.90;;;;;;5017161;28;20402;-80
2022/05/28 08:06:41;;;;;;;6.72;1.30;;;10.40;99.90;;;;;;5021166;28;20396;-82
2022/05/28 08:09:11;;;;;;;6.53;1.20;;;10.50;99.90;;;;;;5018883;27;20407;-82
2022/05/28 08:11:39;;;;;;;6.32;1.30;;;10.50;99.90;;;;;;5024084;28;20943;-83
2022/05/28 08:14:08;;;;;;;4.68;1.25;;;10.40;99.90;;;;;;5021747;28;20433;-84
2022/05/28 08:16:36;;;;;;;5.53;1.05;;;10.30;99.90;;;;;;5019975;28;20399;-82
2022/05/28 08:19:04;;;;;;;6.25;1.38;;;10.00;99.90;;;;;;5026398;28;21102;-83
2022/05/28 08:24:28;;;;;;;4.95;1.17;;;9.70;99.90;;;;;;4984773;28;20411;-83
2022/05/28 08:26:58;;;;;;;5.80;1.40;;;9.50;99.90;;;;;;5016702;28;20405;-83
2022/05/28 08:29:26;;;;;;;5.53;1.63;;;9.60;99.90;;;;;;5014672;28;20399;-84
2022/05/28 08:31:53;;;;;;;5.80;1.40;;;9.50;99.90;;;;;;5017116;28;20410;-84
2022/05/28 08:34:21;;;;;;;5.10;1.30;;;9.60;99.90;;;;;;5012960;28;20485;-83
2022/05/28 08:36:50;;;;;;;5.07;1.40;;;9.50;99.90;;;;;;5010342;28;20469;-83
2022/05/28 08:39:21;;;;;;;4.30;1.50;;;9.50;99.90;;;;;;5015792;28;20825;-84
2022/05/28 08:41:57;;;;;;;4.37;1.10;;;9.60;99.90;;;;;;5015719;28;20403;-84
2022/05/28 08:44:31;;;;;;;5.43;1.35;;;9.80;99.90;;;;;;5024162;28;20394;-82
2022/05/28 08:47:16;;;;;;;4.83;1.60;;;9.80;99.90;;;;;;5021184;28;20403;-81
2022/05/28 08:49:47;;;;;;;6.40;1.88;;;9.90;99.90;;;;;;5016170;28;20476;-82
2022/05/28 08:52:22;;;;;;;6.78;1.40;;;10.00;99.90;;;;;;5016113;28;20442;-81
2022/05/28 08:54:58;;;;;;;7.88;1.60;;;10.10;99.90;;;;;;5009145;28;20379;-83
2022/05/28 08:58:04;;;;;;;5.88;1.60;;;10.10;99.90;;;;;;5015083;28;20804;-83
2022/05/28 09:00:55;;;;;;;4.68;1.13;;;10.10;99.90;;;;;;5015035;28;20402;-84
2022/05/28 09:03:32;;;;;;;3.45;1.30;;;10.20;99.90;;;;;;5018747;28;20394;-83
2022/05/28 09:06:21;;;;;;;6.87;1.27;;;10.30;99.90;;;;;;5018584;28;20408;-83
2022/05/28 09:08:56;;;;;;;5.38;1.30;;;10.40;99.90;;;;;;5017446;28;20447;-84
2022/05/28 09:11:42;;;;;;;4.40;1.40;;;10.40;99.90;;;;;;5023822;28;20448;-83
2022/05/28 09:14:37;;;;;;;4.67;1.13;;;10.30;99.90;;;;;;5019871;28;21006;-84
2022/05/28 09:17:20;;;;;;;5.47;1.30;;;10.30;99.90;;;;;;5019768;28;20400;-83
2022/05/28 09:19:48;;;;;;;4.00;1.00;;;10.40;99.90;;;;;;5022921;28;20406;-83
2022/05/28 09:22:16;;;;;;;5.32;1.70;;;10.50;99.90;;;;;;5018019;28;20407;-83
2022/05/28 09:24:44;;;;;;;5.20;1.40;;;10.50;99.90;;;;;;5022034;28;20415;-84
2022/05/28 09:27:34;;;;;;;6.45;1.30;;;10.50;99.90;;;;;;5020281;28;20401;-83
2022/05/28 09:30:13;;;;;;;4.78;1.23;;;10.60;99.90;;;;;;5011534;28;20438;-82
2022/05/28 09:32:52;;;;;;;5.78;1.27;;;10.60;99.90;;;;;;5018727;28;20466;-84
2022/05/28 09:35:40;;;;;;;5.03;1.30;;;10.60;99.90;;;;;;5018727;28;20402;-84
2022/05/28 09:38:19;;;;;;;5.50;1.20;;;10.70;99.90;;;;;;5016468;28;20395;-84
2022/05/28 09:41:07;;;;;;;5.07;1.30;;;10.90;99.90;;;;;;5019878;28;20440;-84
2022/05/28 09:43:49;;;;;;;3.57;1.03;;;10.90;99.90;;;;;;5015377;28;20792;-83
2022/05/28 09:46:50;;;;;;;2.80;1.10;;;10.90;99.90;;;;;;5017894;28;20407;-84
2022/05/28 09:49:22;;;;;;;5.55;1.60;;;11.10;99.90;;;;;;5016191;28;20419;-84
2022/05/28 09:52:04;;;;;;;5.07;1.10;;;11.10;99.90;;;;;;5013043;28;20490;-84
2022/05/28 09:54:33;;;;;;;5.22;1.23;;;11.10;99.90;;;;;;5011581;28;20383;-84
2022/05/28 09:57:10;;;;;;;4.57;1.10;;;11.20;99.90;;;;;;5017322;28;20819;-84
2022/05/28 09:59:43;;;;;;;6.20;1.10;;;11.30;99.90;;;;;;5026516;28;20446;-84
2022/05/28 10:02:25;;;;;;;4.32;1.30;;;11.30;99.90;;;;;;5016743;28;20497;-84
2022/05/28 10:05:04;;;;;;;4.80;1.30;;;11.30;99.90;;;;;;5017951;28;20521;-84
2022/05/28 10:07:42;;;;;;;7.18;1.20;;;11.20;99.90;;;;;;5023290;28;20909;-84
2022/05/28 10:10:13;;;;;;;3.92;1.10;;;11.20;99.90;;;;;;5021106;28;20419;-83
2022/05/28 10:12:41;;;;;;;5.75;1.05;;;11.10;99.90;;;;;;5053571;28;20456;-85
2022/05/28 10:15:12;;;;;;;6.60;1.10;;;11.10;99.90;;;;;;5022470;28;20403;-85
2022/05/28 10:17:54;;;;;;;4.97;1.30;;;11.10;99.90;;;;;;5017098;28;20968;-85
2022/05/28 10:20:22;;;;;;;4.00;1.10;;;11.10;99.90;;;;;;5022207;28;20903;-84
2022/05/28 10:22:53;;;;;;;4.43;1.17;;;11.20;99.90;;;;;;5020846;28;20446;-84
2022/05/28 10:25:31;;;;;;;4.07;1.20;;;11.20;99.90;;;;;;5010868;28;20494;-83
2022/05/28 10:27:59;;;;;;;3.75;0.95;;;11.20;99.90;;;;;;5017508;28;20406;-84
2022/05/28 10:30:40;;;;;;;6.72;1.38;;;11.20;99.90;;;;;;5020425;28;20440;-84
2022/05/28 10:33:19;;;;;;;4.78;1.13;;;11.20;99.90;;;;;;5018264;28;20436;-85
2022/05/28 10:35:48;;;;;;;3.97;1.00;;;11.20;99.90;;;;;;5020604;28;20411;-83
2022/05/28 10:38:21;;;;;;;2.90;1.08;;;11.30;99.90;;;;;;5022043;28;20436;-83
2022/05/28 10:41:12;;;;;;;2.55;0.90;;;11.40;99.90;;;;;;5020728;28;20433;-83
2022/05/28 10:43:41;;;;;;;3.08;0.90;;;11.40;99.90;;;;;;5048210;28;20465;-84
2022/05/28 10:46:28;;;;;;;3.25;0.90;;;11.40;99.90;;;;;;5014145;28;20446;-84
2022/05/28 10:49:35;;;;;;;4.65;1.02;;;11.30;99.90;;;;;;5027355;28;20411;-82
2022/05/28 10:52:30;;;;;;;8.38;0.90;;;11.10;99.90;;;;;;5010735;28;20700;-82
2022/05/28 10:55:12;;;;;;;4.72;1.00;;;10.80;99.90;;;;;;5020527;28;20388;-83
2022/05/28 10:58:01;;;;;;;7.32;1.10;;;10.40;99.90;;;;;;5026882;28;20781;-84
2022/05/28 11:00:45;;;;;;;3.63;0.77;;;10.10;99.90;;;;;;5018927;28;20450;-82
2022/05/28 11:03:25;;;;;;;3.10;0.70;;;10.20;99.90;;;;;;5019630;27;20397;-83
2022/05/28 11:06:03;;;;;;;4.47;0.80;;;10.20;99.90;;;;;;5016799;28;20443;-82
2022/05/28 11:09:03;;;;;;;3.65;0.70;;;10.30;99.90;;;;;;5020566;28;20405;-84
2022/05/28 11:11:58;;;;;;;2.10;0.77;;;10.00;99.90;;;;;;5021742;28;20411;-82
2022/05/28 11:14:45;;;;;;;3.72;0.90;;;9.80;99.90;;;;;;5018866;28;20408;-83
2022/05/28 11:17:19;;;;;;;3.05;0.93;;;9.80;99.90;;;;;;5022263;28;20398;-85
2022/05/28 11:20:16;;;;;;;3.15;0.75;;;9.90;99.90;;;;;;5015758;28;20499;-83
2022/05/28 11:23:04;;;;;;;2.65;0.80;;;9.90;99.90;;;;;;5022828;28;21039;-86
2022/05/28 11:25:52;;;;;;;2.80;0.80;;;9.90;99.90;;;;;;5049336;28;20500;-86
2022/05/28 11:28:58;;;;;;;3.88;0.90;;;10.10;99.90;;;;;;5023735;28;20409;-85
2022/05/28 11:31:51;;;;;;;3.23;1.10;;;10.20;99.90;;;;;;5014136;28;20439;-83
2022/05/28 11:34:25;;;;;;;3.43;0.70;;;10.00;99.90;;;;;;5022176;28;20408;-85
2022/05/28 11:37:04;;;;;;;3.38;1.00;;;10.10;99.90;;;;;;5031262;28;20397;-85
2022/05/28 11:40:12;;;;;;;2.20;0.60;;;10.30;99.90;;;;;;5049603;28;20438;-86
2022/05/28 11:42:50;;;;;;;3.67;0.80;;;10.50;99.90;;;;;;5021760;28;20391;-84
2022/05/28 11:45:56;;;;;;;2.67;0.70;;;10.70;99.90;;;;;;5009933;28;20460;-85
2022/05/28 11:51:27;;;;;;;2.00;0.60;;;10.90;99.90;;;;;;5017757;28;20409;-85
2022/05/28 11:51:30;;;;;;;3.42;0.80;;;11.10;99.90;;;;;;5010225;28;20414;-85
2022/05/28 11:54:27;;;;;;;1.50;0.60;;;11.30;99.90;;;;;;5016852;28;20902;-84
2022/05/28 11:56:58;;;;;;;2.95;0.68;;;11.40;99.90;;;;;;5018727;28;20405;-85
2022/05/28 11:59:30;;;;;;;2.65;0.70;;;11.40;99.90;;;;;;5012001;28;20497;-83
2022/05/28 12:02:12;;;;;;;1.93;0.70;;;11.50;99.90;;;;;;5023806;28;20784;-85
2022/05/28 12:04:41;;;;;;;1.38;0.50;;;11.60;99.90;;;;;;5033548;28;20394;-84
2022/05/28 12:07:29;;;;;;;2.60;0.60;;;11.50;99.90;;;;;;5014179;28;20822;-87
2022/05/28 12:09:57;;;;;;;2.40;0.80;;;11.50;99.90;;;;;;5018634;28;20389;-87
2022/05/28 12:12:54;;;;;;;2.30;0.65;;;11.60;99.90;;;;;;5015019;28;20404;-85
2022/05/28 12:15:31;;;;;;;1.92;0.52;;;11.60;99.90;;;;;;5013277;28;20406;-85
2022/05/28 12:18:20;;;;;;;3.08;0.70;;;11.60;99.90;;;;;;5018386;28;20942;-82
2022/05/28 12:21:00;;;;;;;2.92;0.80;;;11.50;99.90;;;;;;5015886;28;20469;-86
2022/05/28 12:23:36;;;;;;;2.30;0.65;;;11.60;99.90;;;;;;5013721;28;20502;-86
2022/05/28 12:26:35;;;;;;;2.05;0.52;;;11.70;99.90;;;;;;5018090;28;20427;-85
2022/05/28 12:29:05;;;;;;;2.33;0.60;;;11.90;99.90;;;;;;5018360;28;20438;-84
2022/05/28 12:31:33;;;;;;;2.30;0.70;;;12.00;99.90;;;;;;5016677;28;20494;-86
2022/05/28 12:34:02;;;;;;;2.00;0.60;;;12.20;99.90;;;;;;5017408;28;20803;-86
2022/05/28 12:36:43;;;;;;;1.75;0.60;;;12.30;99.90;;;;;;5009039;28;20456;-84
2022/05/28 12:39:14;;;;;;;2.78;0.80;;;12.40;99.90;;;;;;5015205;28;20419;-88
2022/05/28 12:41:43;;;;;;;4.82;0.80;;;12.40;99.90;;;;;;5015954;28;20859;-85
2022/05/28 12:44:17;;;;;;;2.08;0.70;;;12.30;99.90;;;;;;5016105;28;20389;-85
2022/05/28 12:46:50;;;;;;;3.60;0.90;;;12.30;99.90;;;;;;5018496;28;20398;-86
2022/05/28 12:49:24;;;;;;;1.85;0.70;;;12.20;99.90;;;;;;5011613;28;20943;-84
2022/05/28 12:52:13;;;;;;;2.80;0.80;;;12.10;99.90;;;;;;5011212;28;20407;-85
2022/05/28 12:54:42;;;;;;;2.47;0.85;;;12.10;99.90;;;;;;5014624;28;20454;-86
2022/05/28 12:57:25;;;;;;;1.92;0.77;;;12.00;99.90;;;;;;5013218;28;20423;-84
2022/05/28 13:00:08;;;;;;;2.55;0.85;;;12.00;99.90;;;;;;5013344;28;20502;-86
2022/05/28 13:02:45;;;;;;;2.17;0.77;;;11.90;99.90;;;;;;5014412;28;20801;-85
2022/05/28 13:05:18;;;;;;;3.78;0.85;;;11.90;99.90;;;;;;5014230;28;20907;-85
2022/05/28 13:07:52;;;;;;;3.33;0.90;;;12.00;99.90;;;;;;5022254;28;20422;-86
2022/05/28 13:10:27;;;;;;;4.13;0.77;;;12.00;99.90;;;;;;5013194;28;20456;-88
2022/05/28 13:13:33;;;;;;;3.78;0.70;;;12.00;99.90;;;;;;5022574;28;20412;-87
2022/05/28 13:16:32;;;;;;;2.30;0.75;;;12.00;99.90;;;;;;5033954;28;20407;-87
2022/05/28 13:19:24;;;;;;;2.90;0.80;;;12.00;99.90;;;;;;5021944;28;20440;-85
2022/05/28 13:22:00;;;;;;;1.63;0.70;;;12.00;99.90;;;;;;5017672;28;20919;-88
2022/05/28 13:24:43;;;;;;;2.70;0.90;;;11.90;99.90;;;;;;5022510;28;20488;-86
2022/05/28 13:27:37;;;;;;;5.00;0.90;;;11.80;99.90;;;;;;5025645;28;20402;-85
2022/05/28 13:30:26;;;;;;;2.63;0.80;;;11.60;99.90;;;;;;5018007;28;20402;-87
2022/05/28 13:33:04;;;;;;;2.88;0.70;;;11.50;99.90;;;;;;5047107;28;20432;-88